createdAt,value
2018-09-30T00:02:35.677Z,75.87
2018-09-30T00:05:39.574Z,76.11
2018-09-30T00:08:43.467Z,75.50
2018-09-30T00:11:47.908Z,76.10
2018-09-30T00:14:51.820Z,75.65
2018-09-30T00:17:55.778Z,76.08
2018-09-30T00:20:59.677Z,76.49
2018-09-30T00:24:09.232Z,76.59
2018-09-30T00:27:19.089Z,76.73
2018-09-30T00:30:23.007Z,76.65
2018-09-30T00:33:26.901Z,76.88
2018-09-30T00:36:30.806Z,76.90
2018-09-30T00:39:34.714Z,77.04
2018-09-30T00:42:38.599Z,76.82
2018-09-30T00:45:42.833Z,76.84
2018-09-30T00:48:46.729Z,76.77
2018-09-30T00:51:50.639Z,76.80
2018-09-30T00:54:54.891Z,77.00
2018-09-30T00:57:59.005Z,76.34
2018-09-30T01:01:02.889Z,77.06
2018-09-30T01:04:07.381Z,76.70
2018-09-30T01:07:11.630Z,76.77
2018-09-30T01:10:15.552Z,76.63
2018-09-30T01:13:19.433Z,76.42
2018-09-30T01:16:23.350Z,77.05
2018-09-30T01:19:27.239Z,76.34
2018-09-30T01:22:31.220Z,76.24
2018-09-30T01:25:35.122Z,76.41
2018-09-30T01:28:39.574Z,76.47
2018-09-30T01:31:43.482Z,76.63
2018-09-30T01:34:47.385Z,75.95
2018-09-30T01:37:51.283Z,76.22
2018-09-30T01:40:55.190Z,75.84
2018-09-30T01:43:59.298Z,75.61
2018-09-30T01:47:03.210Z,75.96
2018-09-30T01:50:07.439Z,76.03
2018-09-30T01:53:11.524Z,76.13
2018-09-30T01:56:15.408Z,75.98
2018-09-30T01:59:19.319Z,76.09
2018-09-30T02:02:23.221Z,75.65
2018-09-30T02:05:27.128Z,76.50
2018-09-30T02:08:31.044Z,76.09
2018-09-30T02:11:34.944Z,76.36
2018-09-30T02:14:39.061Z,75.93
2018-09-30T02:17:43.030Z,75.58
2018-09-30T02:20:47.130Z,76.31
2018-09-30T02:23:51.066Z,75.73
2018-09-30T02:26:54.953Z,75.87
2018-09-30T02:29:58.874Z,75.97
2018-09-30T02:33:02.978Z,75.41
2018-09-30T02:36:06.877Z,75.79
2018-09-30T02:39:10.882Z,75.85
2018-09-30T02:42:14.799Z,76.63
2018-09-30T02:45:18.881Z,75.75
2018-09-30T02:48:22.766Z,76.06
2018-09-30T02:51:26.865Z,75.71
2018-09-30T02:54:30.742Z,75.91
2018-09-30T02:57:34.664Z,75.90
2018-09-30T03:00:38.740Z,76.57
2018-09-30T03:03:42.668Z,76.21
2018-09-30T03:06:51.833Z,76.37
2018-09-30T03:09:56.062Z,76.24
2018-09-30T03:13:00.029Z,76.70
2018-09-30T03:16:03.913Z,76.90
2018-09-30T03:19:07.882Z,77.31
2018-09-30T03:22:11.770Z,76.39
2018-09-30T03:25:15.979Z,77.22
2018-09-30T03:28:20.081Z,77.16
2018-09-30T03:31:24.056Z,77.36
2018-09-30T03:34:27.967Z,77.22
2018-09-30T03:37:31.856Z,77.28
2018-09-30T03:40:35.763Z,77.19
2018-09-30T03:43:39.649Z,76.97
2018-09-30T03:46:43.581Z,76.89
2018-09-30T03:49:47.487Z,77.59
2018-09-30T03:52:51.399Z,77.84
2018-09-30T03:55:55.521Z,77.79
2018-09-30T03:58:59.608Z,77.35
2018-09-30T04:02:04.038Z,77.69
2018-09-30T04:05:08.473Z,77.06
2018-09-30T04:08:12.537Z,76.88
2018-09-30T04:11:16.437Z,77.08
2018-09-30T04:14:20.334Z,76.74
2018-09-30T04:17:24.993Z,76.79
2018-09-30T04:20:29.002Z,77.57
2018-09-30T04:23:33.225Z,76.95
2018-09-30T04:26:38.582Z,77.67
2018-09-30T04:29:42.691Z,77.03
2018-09-30T04:32:46.927Z,77.22
2018-09-30T04:35:50.826Z,77.21
2018-09-30T04:38:54.715Z,77.51
2018-09-30T04:41:58.607Z,77.67
2018-09-30T04:45:02.515Z,77.62
2018-09-30T04:48:06.774Z,77.74
2018-09-30T04:51:10.657Z,76.93
2018-09-30T04:54:14.745Z,77.31
2018-09-30T04:57:18.773Z,77.61
2018-09-30T05:00:22.654Z,76.91
2018-09-30T05:03:27.078Z,76.86
2018-09-30T05:06:30.975Z,76.81
2018-09-30T05:09:35.064Z,77.16
2018-09-30T05:12:38.974Z,77.32
2018-09-30T05:15:42.879Z,77.12
2018-09-30T05:18:46.774Z,76.86
2018-09-30T05:21:50.675Z,77.12
2018-09-30T05:24:54.613Z,77.54
2018-09-30T05:27:58.638Z,77.19
2018-09-30T05:31:02.561Z,77.08
2018-09-30T05:34:06.681Z,77.29
2018-09-30T05:37:10.795Z,77.27
2018-09-30T05:40:14.873Z,77.14
2018-09-30T05:43:18.777Z,77.37
2018-09-30T05:46:22.680Z,77.35
2018-09-30T05:49:26.815Z,76.92
2018-09-30T05:52:30.726Z,77.03
2018-09-30T05:55:34.621Z,76.89
2018-09-30T05:58:38.493Z,77.50
2018-09-30T06:01:42.497Z,77.35
2018-09-30T06:04:46.501Z,77.65
2018-09-30T06:07:50.419Z,78.14
2018-09-30T06:10:54.669Z,77.25
2018-09-30T06:13:58.684Z,77.05
2018-09-30T06:17:02.741Z,77.61
2018-09-30T06:20:07.090Z,77.12
2018-09-30T06:23:10.966Z,77.54
2018-09-30T06:26:14.858Z,77.29
2018-09-30T06:29:34.129Z,77.29
2018-09-30T06:32:46.247Z,77.08
2018-09-30T06:35:50.189Z,77.38
2018-09-30T06:38:54.131Z,76.97
2018-09-30T06:42:06.686Z,77.59
2018-09-30T06:45:14.620Z,77.44
2018-09-30T06:48:18.825Z,76.88
2018-09-30T06:51:22.738Z,77.28
2018-09-30T06:54:26.673Z,76.96
2018-09-30T06:57:30.858Z,76.77
2018-09-30T07:00:34.790Z,77.09
2018-09-30T07:03:38.673Z,76.88
2018-09-30T07:06:42.556Z,77.25
2018-09-30T07:09:46.551Z,76.73
2018-09-30T07:12:50.447Z,77.79
2018-09-30T07:15:54.361Z,76.79
2018-09-30T07:18:58.343Z,77.15
2018-09-30T07:22:02.371Z,77.16
2018-09-30T07:25:07.036Z,76.98
2018-09-30T07:28:11.101Z,76.88
2018-09-30T07:31:15.129Z,77.26
2018-09-30T07:34:19.054Z,77.00
2018-09-30T07:37:22.984Z,76.87
2018-09-30T07:40:29.097Z,76.18
2018-09-30T07:43:33.536Z,76.73
2018-09-30T07:46:37.453Z,76.79
2018-09-30T07:49:41.578Z,76.70
2018-09-30T07:52:45.515Z,76.74
2018-09-30T07:55:49.506Z,76.56
2018-09-30T07:58:53.866Z,76.42
2018-09-30T08:01:58.477Z,76.24
2018-09-30T08:05:02.719Z,76.39
2018-09-30T08:08:06.662Z,75.94
2018-09-30T08:11:10.897Z,76.57
2018-09-30T08:14:14.936Z,75.74
2018-09-30T08:17:21.324Z,75.62
2018-09-30T08:20:25.237Z,75.64
2018-09-30T08:23:29.126Z,76.04
2018-09-30T08:26:33.214Z,75.67
2018-09-30T08:29:37.406Z,75.69
2018-09-30T08:32:42.160Z,74.89
2018-09-30T08:35:51.271Z,74.64
2018-09-30T08:38:55.395Z,75.02
2018-09-30T08:41:59.664Z,75.03
2018-09-30T08:45:07.046Z,74.64
2018-09-30T08:48:10.941Z,74.38
2018-09-30T08:51:14.863Z,74.82
2018-09-30T08:54:18.842Z,74.51
2018-09-30T08:57:22.996Z,75.12
2018-09-30T09:00:28.114Z,74.03
2018-09-30T09:03:32.100Z,73.35
2018-09-30T09:06:37.239Z,72.78
2018-09-30T09:09:41.223Z,74.30
2018-09-30T09:12:47.321Z,74.04
2018-09-30T09:15:52.002Z,72.87
2018-09-30T09:18:57.331Z,73.01
2018-09-30T09:22:01.302Z,72.28
2018-09-30T09:25:12.642Z,72.66
2018-09-30T09:28:17.547Z,72.57
2018-09-30T09:31:21.502Z,73.33
2018-09-30T09:34:26.726Z,73.26
2018-09-30T09:37:31.359Z,72.67
2018-09-30T09:40:35.668Z,73.17
2018-09-30T09:43:39.597Z,72.53
2018-09-30T09:46:43.598Z,73.09
2018-09-30T09:49:47.567Z,72.98
2018-09-30T09:52:51.697Z,72.76
2018-09-30T09:55:55.592Z,71.90
2018-09-30T09:58:59.606Z,70.75
2018-09-30T10:02:03.577Z,70.02
2018-09-30T10:05:07.521Z,71.14
2018-09-30T10:08:12.028Z,70.87
2018-09-30T10:11:16.081Z,69.56
2018-09-30T10:14:20.088Z,70.72
2018-09-30T10:17:24.014Z,69.70
2018-09-30T10:20:28.048Z,70.43
2018-09-30T10:23:31.940Z,68.49
2018-09-30T10:26:36.140Z,69.48
2018-09-30T10:29:40.028Z,67.71
2018-09-30T10:32:44.300Z,66.91
2018-09-30T10:35:48.249Z,65.43
2018-09-30T10:38:52.410Z,68.49
2018-09-30T10:41:56.417Z,65.88
2018-09-30T10:45:00.539Z,67.64
2018-09-30T10:48:04.561Z,68.92
2018-09-30T10:51:08.468Z,68.69
2018-09-30T10:54:12.633Z,66.94
2018-09-30T10:57:16.739Z,67.94
2018-09-30T11:00:20.961Z,68.62
2018-09-30T11:03:24.872Z,68.48
2018-09-30T11:06:29.065Z,66.50
2018-09-30T11:09:33.215Z,67.18
2018-09-30T11:12:37.326Z,67.84
2018-09-30T11:15:44.303Z,67.65
2018-09-30T11:18:53.040Z,67.84
2018-09-30T11:21:56.935Z,67.10
2018-09-30T11:25:01.387Z,67.23
2018-09-30T11:28:05.294Z,65.11
2018-09-30T11:31:09.529Z,65.16
2018-09-30T11:34:13.506Z,66.77
2018-09-30T11:37:17.567Z,65.97
2018-09-30T11:40:21.457Z,67.47
2018-09-30T11:43:28.401Z,67.22
2018-09-30T11:46:32.334Z,65.67
2018-09-30T11:49:36.650Z,65.71
2018-09-30T11:52:40.614Z,66.75
2018-09-30T11:55:52.825Z,64.76
2018-09-30T11:59:06.653Z,66.31
2018-09-30T12:02:12.269Z,65.83
2018-09-30T12:05:26.580Z,66.00
2018-09-30T12:08:39.659Z,65.92
2018-09-30T12:11:45.227Z,67.38
2018-09-30T12:14:49.460Z,64.94
2018-09-30T12:21:31.491Z,66.17
2018-09-30T12:24:35.539Z,65.83
2018-09-30T12:27:39.743Z,66.18
2018-09-30T12:30:51.022Z,66.25
2018-09-30T12:33:55.791Z,66.84
2018-09-30T12:36:59.748Z,65.87
2018-09-30T12:40:04.080Z,65.98
2018-09-30T12:43:08.591Z,64.68
2018-09-30T12:46:13.525Z,65.64
2018-09-30T12:49:17.483Z,65.49
2018-09-30T12:52:28.579Z,63.78
2018-09-30T12:55:40.162Z,64.13
2018-09-30T12:58:49.740Z,64.95
2018-09-30T13:02:00.611Z,64.82
2018-09-30T13:05:06.935Z,64.46
2018-09-30T13:08:11.027Z,63.33
2018-09-30T13:11:14.977Z,63.39
2018-09-30T13:14:19.165Z,62.92
2018-09-30T13:17:24.737Z,62.98
2018-09-30T13:20:28.854Z,62.38
2018-09-30T13:23:32.935Z,62.22
2018-09-30T13:26:43.653Z,62.65
2018-09-30T13:35:09.802Z,62.33
2018-09-30T13:38:20.951Z,62.26
2018-09-30T13:41:33.149Z,61.47
2018-09-30T13:44:45.654Z,61.14
2018-09-30T13:47:50.327Z,61.20
2018-09-30T13:50:54.221Z,57.70
2018-09-30T13:53:58.561Z,60.75
2018-09-30T13:57:02.559Z,59.58
2018-09-30T14:00:07.401Z,60.86
2018-09-30T14:03:11.336Z,59.88
2018-09-30T14:06:15.193Z,61.72
2018-09-30T14:09:19.085Z,60.46
2018-09-30T14:12:23.319Z,60.79
2018-09-30T14:15:27.247Z,61.85
2018-09-30T14:18:31.128Z,61.43
2018-09-30T14:21:35.030Z,59.63
2018-09-30T14:24:38.913Z,59.67
2018-09-30T14:27:42.823Z,59.63
2018-09-30T14:30:46.742Z,60.24
2018-09-30T14:33:50.901Z,59.69
2018-09-30T14:36:54.804Z,60.98
2018-09-30T14:39:58.727Z,59.94
2018-09-30T14:43:02.629Z,60.76
2018-09-30T14:46:07.118Z,60.20
2018-09-30T14:49:11.370Z,60.87
2018-09-30T14:52:15.753Z,60.33
2018-09-30T14:55:19.641Z,60.36
2018-09-30T14:58:23.530Z,62.03
2018-09-30T15:01:27.434Z,62.09
2018-09-30T15:04:31.318Z,61.65
2018-09-30T15:07:35.237Z,61.61
2018-09-30T15:10:39.125Z,60.65
2018-09-30T15:13:43.069Z,61.47
2018-09-30T15:16:46.982Z,62.33
2018-09-30T15:19:50.869Z,62.30
2018-09-30T15:22:54.961Z,62.92
2018-09-30T15:25:59.194Z,63.00
2018-09-30T15:29:03.089Z,63.36
2018-09-30T15:32:06.993Z,62.60
2018-09-30T15:35:11.217Z,63.23
2018-09-30T15:38:15.113Z,62.44
2018-09-30T15:41:19.030Z,62.60
2018-09-30T15:44:23.049Z,63.23
2018-09-30T15:47:26.921Z,63.56
2018-09-30T15:50:30.844Z,63.03
2018-09-30T15:53:34.765Z,63.28
2018-09-30T15:56:38.979Z,62.88
2018-09-30T15:59:43.025Z,64.29
2018-09-30T16:02:47.000Z,63.78
2018-09-30T16:05:50.913Z,63.20
2018-09-30T16:08:54.803Z,64.10
2018-09-30T16:11:58.886Z,63.77
2018-09-30T16:15:02.867Z,64.39
2018-09-30T16:18:06.773Z,63.98
2018-09-30T16:21:11.047Z,64.56
2018-09-30T16:24:15.129Z,63.35
2018-09-30T16:27:19.005Z,63.41
2018-09-30T16:30:22.901Z,63.21
2018-09-30T16:33:27.080Z,63.54
2018-09-30T16:36:31.527Z,63.33
2018-09-30T16:39:35.418Z,63.70
2018-09-30T16:42:39.320Z,62.51
2018-09-30T16:45:43.206Z,63.28
2018-09-30T16:48:47.301Z,63.36
2018-09-30T16:51:51.244Z,63.08
2018-09-30T16:54:55.273Z,63.02
2018-09-30T16:57:59.170Z,63.53
2018-09-30T17:01:03.065Z,63.33
2018-09-30T17:04:07.292Z,64.34
2018-09-30T17:07:11.505Z,63.63
2018-09-30T17:10:15.729Z,63.95
2018-09-30T17:13:19.656Z,64.04
2018-09-30T17:16:23.568Z,64.11
2018-09-30T17:19:27.654Z,64.65
2018-09-30T17:22:31.748Z,64.55
2018-09-30T17:25:35.629Z,65.50
2018-09-30T17:28:39.509Z,65.63
2018-09-30T17:31:43.760Z,66.37
2018-09-30T17:34:47.734Z,66.89
2018-09-30T17:37:51.782Z,67.50
2018-09-30T17:40:56.227Z,69.04
2018-09-30T17:44:00.174Z,69.39
2018-09-30T17:47:04.533Z,69.41
2018-09-30T17:50:08.435Z,68.71
2018-09-30T17:53:12.510Z,70.38
2018-09-30T17:56:16.519Z,70.09
2018-09-30T17:59:20.401Z,69.85
2018-09-30T18:02:24.310Z,70.76
2018-09-30T18:05:28.203Z,72.22
2018-09-30T18:08:32.291Z,71.78
2018-09-30T18:11:36.353Z,71.78
2018-09-30T18:14:40.237Z,72.23
2018-09-30T18:17:44.223Z,72.12
2018-09-30T18:20:48.453Z,72.71
2018-09-30T18:23:52.447Z,73.34
2018-09-30T18:26:56.422Z,73.58
2018-09-30T18:30:00.370Z,73.12
2018-09-30T18:33:04.336Z,73.35
2018-09-30T18:36:08.229Z,73.17
2018-09-30T18:39:13.130Z,74.47
2018-09-30T18:42:17.134Z,75.09
2018-09-30T18:45:21.362Z,74.12
2018-09-30T18:48:25.461Z,75.28
2018-09-30T18:51:29.366Z,75.25
2018-09-30T18:54:33.261Z,75.17
2018-09-30T18:57:37.153Z,75.25
2018-09-30T19:00:44.103Z,75.19
2018-09-30T19:03:48.112Z,74.95
2018-09-30T19:06:52.009Z,74.73
2018-09-30T19:09:55.906Z,75.40
2018-09-30T19:12:59.802Z,74.83
2018-09-30T19:16:03.939Z,74.73
2018-09-30T19:19:08.404Z,74.48
2018-09-30T19:22:12.502Z,75.23
2018-09-30T19:25:16.403Z,75.10
2018-09-30T19:28:20.478Z,75.19
2018-09-30T19:31:24.555Z,75.13
2018-09-30T19:34:28.444Z,74.42
2018-09-30T19:37:32.344Z,75.21
2018-09-30T19:40:36.442Z,74.96
2018-09-30T19:43:40.333Z,74.77
2018-09-30T19:46:44.236Z,74.31
2018-09-30T19:49:48.109Z,75.37
2018-09-30T19:52:52.005Z,74.92
2018-09-30T19:55:55.888Z,74.69
2018-09-30T19:59:00.002Z,75.41
2018-09-30T20:02:03.906Z,75.98
2018-09-30T20:05:07.795Z,75.55
2018-09-30T20:08:11.699Z,76.23
2018-09-30T20:11:15.786Z,76.33
2018-09-30T20:14:19.722Z,76.15
2018-09-30T20:17:23.631Z,76.14
2018-09-30T20:20:27.512Z,75.95
2018-09-30T20:23:31.480Z,76.16
2018-09-30T20:26:35.718Z,76.42
2018-09-30T20:29:39.932Z,76.60
2018-09-30T20:32:43.820Z,76.81
2018-09-30T20:35:48.091Z,76.85
2018-09-30T20:38:51.985Z,76.26
2018-09-30T20:41:55.885Z,76.20
2018-09-30T20:44:59.794Z,76.60
2018-09-30T20:48:03.679Z,77.10
2018-09-30T20:51:07.610Z,76.77
2018-09-30T20:54:11.702Z,77.56
2018-09-30T20:57:15.581Z,76.75
2018-09-30T21:00:19.482Z,77.65
2018-09-30T21:03:23.349Z,77.50
2018-09-30T21:06:42.997Z,77.18
2018-09-30T21:09:46.881Z,77.52
2018-09-30T21:12:51.060Z,77.45
2018-09-30T21:15:55.297Z,77.13
2018-09-30T21:18:59.542Z,77.69
2018-09-30T21:22:03.417Z,76.59
2018-09-30T21:25:07.304Z,76.13
2018-09-30T21:28:11.201Z,76.19
2018-09-30T21:31:15.611Z,76.82
2018-09-30T21:34:19.518Z,76.28
2018-09-30T21:37:23.986Z,76.63
2018-09-30T21:40:27.873Z,76.12
2018-09-30T21:43:31.774Z,76.69
2018-09-30T21:46:35.977Z,76.13
2018-09-30T21:49:40.177Z,76.41
2018-09-30T21:52:44.078Z,76.26
2018-09-30T21:55:47.986Z,76.43
2018-09-30T21:58:51.875Z,76.44
2018-09-30T22:01:55.767Z,76.19
2018-09-30T22:04:59.652Z,76.08
2018-09-30T22:08:04.394Z,75.62
2018-09-30T22:11:08.615Z,76.20
2018-09-30T22:14:12.517Z,75.42
2018-09-30T22:17:16.406Z,76.35
2018-09-30T22:20:20.525Z,76.22
2018-09-30T22:23:24.420Z,76.35
2018-09-30T22:26:28.421Z,75.73
2018-09-30T22:29:32.318Z,76.50
2018-09-30T22:32:36.216Z,76.21
2018-09-30T22:35:40.117Z,76.04
2018-09-30T22:38:44.202Z,76.44
2018-09-30T22:41:48.102Z,76.75
2018-09-30T22:44:52.354Z,77.50
2018-09-30T22:47:56.246Z,77.99
2018-09-30T22:51:00.137Z,78.15
2018-09-30T22:54:04.029Z,78.02
2018-09-30T22:57:08.230Z,78.66
2018-09-30T23:00:12.348Z,78.00
2018-09-30T23:03:16.253Z,77.96
2018-09-30T23:06:20.147Z,77.84
2018-09-30T23:09:24.059Z,77.56
2018-09-30T23:12:28.169Z,77.38
2018-09-30T23:15:32.065Z,77.68
2018-09-30T23:18:35.966Z,76.99
2018-09-30T23:21:39.862Z,77.54
2018-09-30T23:24:43.757Z,76.92
2018-09-30T23:27:47.642Z,76.95
2018-09-30T23:30:51.537Z,77.45
2018-09-30T23:33:55.462Z,78.01
2018-09-30T23:36:59.354Z,76.73
2018-09-30T23:40:03.538Z,76.84
2018-09-30T23:43:07.814Z,77.66
2018-09-30T23:46:11.731Z,77.53
2018-09-30T23:49:15.625Z,76.82
2018-09-30T23:52:19.521Z,77.84
2018-09-30T23:55:23.422Z,77.39
2018-09-30T23:58:27.323Z,78.05
